Time;durP1;ratioP1;P1;durP2;ratioP2;P2;SDS_P1;SDS_P2;PMS_P1;PMS_P2;Temp;Humidity;BMP_temperature;BMP_pressure;BME280_temperature;BME280_humidity;BME280_pressure;Samples;Min_cycle;Max_cycle;Signal;HPM_P1;HPM_P2
2021/07/30 00:00:42;;;;;;;11.67;4.93;;;14.40;99.90;;;;;;5025241;28;20916;-79
2021/07/30 00:03:11;;;;;;;12.27;4.57;;;14.40;99.90;;;;;;5013811;28;20499;-77
2021/07/30 00:05:42;;;;;;;9.00;4.37;;;14.30;99.90;;;;;;5013825;28;20419;-76
2021/07/30 00:08:12;;;;;;;5.60;4.77;;;14.30;99.90;;;;;;5014994;28;20412;-76
2021/07/30 00:10:42;;;;;;;9.23;4.70;;;14.30;99.90;;;;;;5013742;28;20421;-76
2021/07/30 00:13:08;;;;;;;7.43;5.20;;;14.20;99.90;;;;;;5018287;28;20390;-76
2021/07/30 00:15:34;;;;;;;9.10;4.57;;;14.20;99.90;;;;;;5030855;28;20412;-76
2021/07/30 00:18:06;;;;;;;6.10;4.40;;;14.10;99.90;;;;;;5037111;28;20195;-76
2021/07/30 00:20:42;;;;;;;8.03;4.90;;;14.10;99.90;;;;;;5037816;28;20234;-79
2021/07/30 00:23:12;;;;;;;7.93;4.63;;;14.10;99.90;;;;;;5018484;28;20391;-79
2021/07/30 00:25:42;;;;;;;6.33;4.77;;;14.00;99.90;;;;;;5028131;28;20921;-79
2021/07/30 00:28:12;;;;;;;7.23;4.30;;;14.00;99.90;;;;;;5022924;28;20427;-79
2021/07/30 00:30:42;;;;;;;4.97;4.10;;;14.00;99.90;;;;;;5024477;28;20990;-79
2021/07/30 00:33:36;;;;;;;6.67;4.37;;;;;;;;;;5033295;28;20505;-79
2021/07/30 00:36:35;;;;;;;7.60;5.13;;;13.90;99.90;;;;;;5017191;28;20363;-79
2021/07/30 00:39:24;;;;;;;6.23;4.43;;;13.90;99.90;;;;;;5018240;28;20465;-79
2021/07/30 00:45:11;;;;;;;8.63;5.10;;;13.80;99.90;;;;;;5036371;28;20410;-79
2021/07/30 00:47:43;;;;;;;10.20;5.23;;;13.70;99.90;;;;;;5034887;28;20775;-79
2021/07/30 00:50:18;;;;;;;9.67;5.07;;;13.70;99.90;;;;;;5029209;28;20292;-76
2021/07/30 00:52:54;;;;;;;10.10;4.33;;;13.70;99.90;;;;;;5031343;28;20433;-76
2021/07/30 00:55:24;;;;;;;14.13;4.37;;;13.70;99.90;;;;;;5034076;28;20392;-76
2021/07/30 00:57:52;;;;;;;15.80;4.93;;;13.60;99.90;;;;;;5019827;28;20414;-76
2021/07/30 01:00:19;;;;;;;17.27;5.73;;;13.60;99.90;;;;;;5016708;28;20905;-76
2021/07/30 01:02:49;;;;;;;7.90;5.43;;;13.60;99.90;;;;;;5017012;28;20499;-76
2021/07/30 01:05:36;;;;;;;10.40;5.10;;;13.60;99.90;;;;;;5015967;28;20524;-76
2021/07/30 01:08:18;;;;;;;7.33;4.90;;;13.60;99.90;;;;;;5021394;28;20457;-76
2021/07/30 01:10:54;;;;;;;11.27;5.70;;;13.50;99.90;;;;;;5016858;28;20447;-76
2021/07/30 01:13:20;;;;;;;6.43;4.40;;;13.50;99.90;;;;;;5016765;28;20434;-76
2021/07/30 01:15:54;;;;;;;13.90;5.07;;;13.50;99.90;;;;;;5016650;28;20403;-76
2021/07/30 01:18:20;;;;;;;8.63;5.07;;;13.50;99.90;;;;;;5032819;28;20167;-76
2021/07/30 01:21:06;;;;;;;9.77;5.33;;;13.50;99.90;;;;;;5036377;28;20531;-76
2021/07/30 01:23:32;;;;;;;10.47;4.80;;;13.40;99.90;;;;;;5035177;28;20299;-76
2021/07/30 01:26:06;;;;;;;13.23;5.30;;;13.40;99.90;;;;;;5023241;28;20478;-77
2021/07/30 01:28:36;;;;;;;10.83;5.07;;;13.40;99.90;;;;;;5018451;28;20179;-76
2021/07/30 01:31:07;;;;;;;7.40;4.77;;;13.40;99.90;;;;;;5035252;28;21014;-76
2021/07/30 01:33:54;;;;;;;12.00;4.90;;;13.40;99.90;;;;;;5035583;28;20453;-76
2021/07/30 01:36:35;;;;;;;5.70;4.87;;;13.40;99.90;;;;;;5024029;28;20904;-76
2021/07/30 01:39:30;;;;;;;13.27;5.27;;;13.30;99.90;;;;;;5017286;28;20425;-76
2021/07/30 01:41:56;;;;;;;6.63;5.00;;;13.30;99.90;;;;;;5019572;28;20397;-76
2021/07/30 01:44:30;;;;;;;7.33;4.60;;;13.30;99.90;;;;;;5036206;28;20395;-76
2021/07/30 01:47:00;;;;;;;8.10;5.30;;;13.30;99.90;;;;;;5020516;28;20572;-76
2021/07/30 01:56:24;;;;;;;8.83;5.40;;;13.20;99.90;;;;;;5019733;28;20403;-79
2021/07/30 01:59:24;;;;;;;8.17;5.37;;;13.20;99.90;;;;;;5016760;28;20393;-79
2021/07/30 02:02:42;;;;;;;6.93;4.77;;;13.20;99.90;;;;;;5019900;28;20948;-79
2021/07/30 02:05:12;;;;;;;5.73;4.70;;;13.20;99.90;;;;;;5018667;28;20515;-76
2021/07/30 02:07:38;;;;;;;5.03;4.43;;;13.20;99.90;;;;;;5021838;28;20407;-76
2021/07/30 02:10:12;;;;;;;15.73;5.10;;;13.10;99.90;;;;;;5029440;28;20460;-76
2021/07/30 02:19:42;;;;;;;7.30;5.20;;;13.10;99.90;;;;;;5033799;28;20461;-78
2021/07/30 02:22:54;;;;;;;9.13;4.60;;;13.00;99.90;;;;;;5027458;28;20475;-76
2021/07/30 02:25:24;;;;;;;19.50;4.43;;;13.10;99.90;;;;;;5022424;28;20431;-76
2021/07/30 02:28:06;;;;;;;8.47;5.17;;;13.10;99.90;;;;;;5030290;28;20904;-76
2021/07/30 02:30:42;;;;;;;7.83;5.00;;;13.00;99.90;;;;;;5019480;28;20447;-76
2021/07/30 02:33:08;;;;;;;12.47;5.30;;;13.00;99.90;;;;;;5023009;28;20430;-76
2021/07/30 02:35:54;;;;;;;9.90;5.07;;;13.10;99.90;;;;;;5033512;28;20419;-79
2021/07/30 02:38:24;;;;;;;14.60;4.50;;;13.00;99.90;;;;;;5032794;28;20556;-80
2021/07/30 02:41:24;;;;;;;9.90;5.30;;;13.00;99.90;;;;;;5034118;28;20978;-80
2021/07/30 02:44:07;;;;;;;8.40;4.83;;;12.90;99.90;;;;;;5024915;28;20424;-79
2021/07/30 02:46:32;;;;;;;8.23;4.60;;;12.90;99.90;;;;;;5014732;28;20440;-79
2021/07/30 02:49:24;;;;;;;12.90;4.63;;;13.00;99.90;;;;;;5020964;28;20482;-79
2021/07/30 02:52:24;;;;;;;9.97;5.00;;;12.90;99.90;;;;;;5034649;28;20188;-79
2021/07/30 02:54:54;;;;;;;6.73;4.53;;;12.90;99.90;;;;;;5014565;28;20417;-79
2021/07/30 02:57:54;;;;;;;10.60;5.47;;;12.80;99.90;;;;;;5019140;28;20824;-79
2021/07/30 03:03:54;;;;;;;5.47;4.60;;;12.80;99.90;;;;;;5014832;28;20396;-79
2021/07/30 03:06:24;;;;;;;6.30;5.10;;;12.80;99.90;;;;;;5015656;28;20917;-79
2021/07/30 03:08:56;;;;;;;6.53;4.47;;;12.70;99.90;;;;;;5022674;28;20974;-79
2021/07/30 03:11:24;;;;;;;6.73;4.67;;;12.70;99.90;;;;;;5033884;28;20454;-78
2021/07/30 03:13:54;;;;;;;11.20;4.93;;;12.70;99.90;;;;;;5032606;28;20786;-79
2021/07/30 03:16:54;;;;;;;7.03;5.17;;;12.70;99.90;;;;;;5033586;28;20896;-79
2021/07/30 03:19:54;;;;;;;9.63;4.93;;;12.70;99.90;;;;;;5021758;28;20391;-79
2021/07/30 03:22:54;;;;;;;9.60;5.00;;;12.60;99.90;;;;;;5022900;28;20390;-79
2021/07/30 03:25:24;;;;;;;5.90;4.90;;;12.60;99.90;;;;;;5027348;28;20393;-79
2021/07/30 03:27:54;;;;;;;6.90;5.50;;;12.60;99.90;;;;;;5023240;28;20423;-80
2021/07/30 03:30:24;;;;;;;21.13;5.57;;;12.70;99.90;;;;;;5033173;28;20916;-79
2021/07/30 03:33:24;;;;;;;8.40;5.17;;;12.60;99.90;;;;;;5033146;28;20425;-79
2021/07/30 03:36:24;;;;;;;13.63;5.90;;;12.50;99.90;;;;;;5031330;28;20790;-79
2021/07/30 03:38:54;;;;;;;15.33;5.80;;;12.50;99.90;;;;;;5017962;28;20496;-79
2021/07/30 03:41:24;;;;;;;9.23;5.40;;;12.50;99.90;;;;;;5033805;28;20422;-79
2021/07/30 03:43:54;;;;;;;7.93;5.13;;;12.50;99.90;;;;;;5033601;28;20402;-79
2021/07/30 03:46:30;;;;;;;7.63;4.93;;;12.50;99.90;;;;;;5032585;28;20896;-79
2021/07/30 03:52:18;;;;;;;10.77;5.63;;;12.40;99.90;;;;;;5014973;28;20590;-76
2021/07/30 03:54:44;;;;;;;10.90;5.67;;;12.40;99.90;;;;;;5021556;28;20421;-76
2021/07/30 03:57:10;;;;;;;9.60;5.33;;;12.40;99.90;;;;;;5029884;28;20453;-76
2021/07/30 03:59:35;;;;;;;8.23;5.43;;;12.40;99.90;;;;;;5031329;28;20169;-76
2021/07/30 04:02:01;;;;;;;7.87;4.97;;;12.40;99.90;;;;;;5033260;28;20279;-76
2021/07/30 04:04:27;;;;;;;7.00;5.37;;;12.50;99.90;;;;;;5033670;28;20179;-76
2021/07/30 04:06:53;;;;;;;6.97;4.97;;;12.40;99.90;;;;;;5021664;28;20579;-76
2021/07/30 04:09:18;;;;;;;9.13;5.50;;;12.40;99.90;;;;;;5019107;28;20176;-76
2021/07/30 04:11:45;;;;;;;7.67;5.47;;;12.50;99.90;;;;;;5014212;28;20280;-76
2021/07/30 04:14:24;;;;;;;8.97;5.43;;;12.50;99.90;;;;;;5013869;28;20153;-81
2021/07/30 04:16:54;;;;;;;9.87;5.60;;;12.50;99.90;;;;;;5021997;28;20415;-81
2021/07/30 04:19:30;;;;;;;10.80;5.50;;;12.50;99.90;;;;;;5032470;28;20385;-80
2021/07/30 04:25:17;;;;;;;5.83;4.73;;;12.50;99.90;;;;;;5014104;28;20395;-84
2021/07/30 04:27:54;;;;;;;6.70;5.13;;;12.60;99.90;;;;;;5021280;28;20439;-81
2021/07/30 04:30:24;;;;;;;7.27;4.70;;;12.50;99.90;;;;;;5014381;28;20622;-78
2021/07/30 04:32:54;;;;;;;8.50;5.00;;;12.60;99.90;;;;;;5012084;28;20907;-78
2021/07/30 04:35:24;;;;;;;7.20;5.27;;;12.70;99.90;;;;;;5013382;28;20743;-78
2021/07/30 04:44:54;;;;;;;5.23;4.70;;;12.80;99.90;;;;;;5013142;28;20470;-78
2021/07/30 04:47:24;;;;;;;8.50;5.23;;;12.90;99.90;;;;;;5021534;28;20432;-78
2021/07/30 04:49:54;;;;;;;6.27;4.33;;;12.90;99.90;;;;;;5013141;28;20398;-80
2021/07/30 04:52:54;;;;;;;6.57;4.90;;;12.90;99.90;;;;;;5027631;28;20515;-77
2021/07/30 04:55:25;;;;;;;9.40;4.80;;;13.00;99.90;;;;;;5020262;28;20746;-77
2021/07/30 04:57:54;;;;;;;9.37;5.47;;;13.00;99.90;;;;;;5020408;28;20423;-77
2021/07/30 05:00:25;;;;;;;9.60;5.83;;;13.10;99.90;;;;;;5016361;28;20859;-77
2021/07/30 05:02:54;;;;;;;8.20;5.83;;;13.10;99.90;;;;;;5034639;28;20397;-78
2021/07/30 05:05:24;;;;;;;9.43;6.00;;;13.10;99.90;;;;;;5034857;28;20792;-77
2021/07/30 05:07:54;;;;;;;5.83;4.53;;;13.20;99.90;;;;;;5019696;28;20495;-76
2021/07/30 05:10:20;;;;;;;10.80;5.17;;;13.30;99.90;;;;;;5017991;28;20391;-76
2021/07/30 05:16:42;;;;;;;9.50;5.43;;;13.40;99.90;;;;;;5016056;28;20192;-80
2021/07/30 05:22:42;;;;;;;10.30;5.87;;;13.50;99.90;;;;;;5021412;28;20438;-78
2021/07/30 05:25:24;;;;;;;18.90;8.60;;;13.70;99.90;;;;;;5034801;28;20382;-83
2021/07/30 05:28:24;;;;;;;12.83;6.63;;;13.80;99.90;;;;;;5021966;28;20438;-77
2021/07/30 05:34:42;;;;;;;10.90;5.67;;;14.10;99.90;;;;;;5033615;28;20393;-77
2021/07/30 05:37:07;;;;;;;6.20;4.50;;;14.20;99.90;;;;;;5036147;28;20435;-76
2021/07/30 05:39:33;;;;;;;5.93;4.20;;;14.20;99.90;;;;;;5035537;28;20415;-75
2021/07/30 05:42:18;;;;;;;5.80;4.50;;;14.50;99.90;;;;;;5026256;28;20181;-75
2021/07/30 05:45:18;;;;;;;7.60;4.97;;;14.50;99.90;;;;;;5035436;28;20558;-75
2021/07/30 05:47:54;;;;;;;8.70;4.70;;;14.70;99.90;;;;;;5025176;28;20428;-75
2021/07/30 05:53:54;;;;;;;8.23;5.00;;;15.00;99.90;;;;;;5025899;28;20485;-81
2021/07/30 05:56:20;;;;;;;7.73;4.70;;;15.00;99.90;;;;;;5033916;28;21089;-82
2021/07/30 05:58:48;;;;;;;15.50;4.70;;;15.10;99.90;;;;;;5018493;28;20477;-82
2021/07/30 06:01:18;;;;;;;5.87;4.47;;;15.40;99.90;;;;;;5020120;28;20426;-82
2021/07/30 06:03:44;;;;;;;9.40;5.23;;;15.50;99.90;;;;;;5033167;28;20407;-77
2021/07/30 06:06:09;;;;;;;5.20;4.50;;;15.60;99.90;;;;;;5015605;28;20519;-76
2021/07/30 06:08:35;;;;;;;6.20;4.80;;;15.60;99.90;;;;;;5017062;28;20188;-78
2021/07/30 06:11:02;;;;;;;9.27;5.60;;;15.70;99.90;;;;;;5015565;28;20291;-78
2021/07/30 06:13:30;;;;;;;7.53;4.60;;;15.90;99.90;;;;;;5026498;28;20173;-79
2021/07/30 06:15:56;;;;;;;5.80;4.10;;;15.90;99.90;;;;;;5014918;28;20383;-78
2021/07/30 06:18:21;;;;;;;13.43;5.60;;;16.10;99.90;;;;;;5024231;28;20408;-79
2021/07/30 06:20:47;;;;;;;10.83;4.87;;;16.20;99.90;;;;;;5020328;28;20203;-79
2021/07/30 06:23:13;;;;;;;9.00;5.27;;;16.40;99.90;;;;;;5034291;28;20207;-79
2021/07/30 06:25:38;;;;;;;8.03;4.87;;;16.40;99.90;;;;;;5033447;28;20172;-79
2021/07/30 06:28:04;;;;;;;7.57;5.23;;;16.60;99.90;;;;;;5028543;28;20679;-79
2021/07/30 06:30:31;;;;;;;6.83;5.27;;;16.80;99.90;;;;;;5022359;28;20200;-79
2021/07/30 06:32:57;;;;;;;8.30;5.10;;;16.80;99.90;;;;;;5013758;28;20166;-79
2021/07/30 06:35:25;;;;;;;7.33;4.47;;;17.00;99.90;;;;;;5014129;28;20393;-79
2021/07/30 06:37:51;;;;;;;11.13;5.60;;;17.30;99.90;;;;;;5020777;28;20534;-77
2021/07/30 06:40:17;;;;;;;7.53;4.90;;;17.40;99.90;;;;;;5033828;28;20396;-77
2021/07/30 06:42:42;;;;;;;16.50;5.00;;;17.60;99.90;;;;;;5033907;28;20435;-77
2021/07/30 06:45:09;;;;;;;15.03;4.43;;;17.60;99.90;;;;;;5033299;28;20208;-77
2021/07/30 06:47:35;;;;;;;5.63;4.47;;;17.80;99.90;;;;;;5029948;28;20177;-77
2021/07/30 06:50:02;;;;;;;5.37;3.90;;;18.00;99.90;;;;;;5013739;28;20879;-76
2021/07/30 06:52:29;;;;;;;8.40;3.70;;;18.20;99.90;;;;;;5017712;28;20452;-79
2021/07/30 06:54:55;;;;;;;9.57;4.30;;;;;;;;;;5013628;28;20449;-79
2021/07/30 06:57:21;;;;;;;7.70;4.60;;;18.40;99.90;;;;;;5014055;28;20422;-79
2021/07/30 06:59:50;;;;;;;7.17;4.40;;;18.60;99.90;;;;;;5013502;28;20394;-80
2021/07/30 07:02:16;;;;;;;5.00;4.00;;;18.80;99.90;;;;;;5023528;28;20444;-79
2021/07/30 07:04:42;;;;;;;6.60;3.80;;;18.90;99.90;;;;;;5032764;28;20521;-79
2021/07/30 07:07:08;;;;;;;11.63;3.90;;;19.10;99.90;;;;;;5022414;28;20939;-77
2021/07/30 07:09:36;;;;;;;7.90;3.77;;;19.10;99.90;;;;;;5014028;28;20434;-77
2021/07/30 07:12:02;;;;;;;4.80;3.77;;;19.40;99.90;;;;;;5030249;28;20204;-77
2021/07/30 07:14:31;;;;;;;5.67;3.30;;;19.50;99.90;;;;;;5032649;28;20445;-76
2021/07/30 07:16:57;;;;;;;7.43;3.43;;;19.60;99.90;;;;;;5029904;28;20468;-77
2021/07/30 07:19:23;;;;;;;10.70;3.50;;;19.70;99.90;;;;;;5032975;28;20414;-77
2021/07/30 07:21:50;;;;;;;6.87;3.53;;;19.70;99.90;;;;;;5028020;28;20187;-76
2021/07/30 07:24:16;;;;;;;6.80;3.07;;;19.70;99.90;;;;;;5033165;28;20421;-80
2021/07/30 07:26:42;;;;;;;5.93;3.37;;;19.90;99.90;;;;;;5032649;28;20881;-80
2021/07/30 07:29:09;;;;;;;3.10;2.77;;;20.10;99.90;;;;;;5030223;28;20501;-79
2021/07/30 07:31:35;;;;;;;4.70;3.27;;;20.10;99.90;;;;;;5026239;28;20985;-80
2021/07/30 07:34:06;;;;;;;4.40;3.17;;;20.20;99.90;;;;;;5012748;28;20476;-80
2021/07/30 07:36:32;;;;;;;14.90;3.27;;;20.30;99.90;;;;;;5013127;28;20376;-80
2021/07/30 07:38:57;;;;;;;12.50;3.67;;;20.50;99.90;;;;;;5013806;28;20460;-77
2021/07/30 07:41:25;;;;;;;7.63;3.10;;;20.60;99.90;;;;;;5012985;28;20261;-77
2021/07/30 07:43:50;;;;;;;6.50;3.33;;;20.70;99.90;;;;;;5013155;28;20169;-77
2021/07/30 07:46:16;;;;;;;3.97;2.83;;;20.70;99.90;;;;;;5013127;28;20405;-77
2021/07/30 07:48:42;;;;;;;4.93;3.07;;;20.80;99.90;;;;;;5026491;28;20218;-77
2021/07/30 07:51:07;;;;;;;4.73;3.03;;;20.90;99.90;;;;;;5027490;28;20209;-76
2021/07/30 07:53:33;;;;;;;4.93;2.80;;;21.00;99.90;;;;;;5026077;28;20256;-80
2021/07/30 07:56:00;;;;;;;5.20;2.60;;;21.10;99.90;;;;;;5032542;28;20225;-80
2021/07/30 07:58:26;;;;;;;4.10;2.80;;;21.20;99.90;;;;;;5031547;28;20180;-80
2021/07/30 08:00:52;;;;;;;10.73;2.80;;;21.20;99.90;;;;;;5032588;28;20832;-80
2021/07/30 08:03:18;;;;;;;3.63;2.70;;;;;;;;;;5032680;28;20404;-80
2021/07/30 08:05:43;;;;;;;3.70;2.80;;;21.40;99.90;;;;;;5032617;28;20177;-80
2021/07/30 08:08:09;;;;;;;8.10;3.10;;;21.40;99.90;;;;;;5016879;28;20429;-79
2021/07/30 08:10:35;;;;;;;6.00;2.73;;;21.50;99.90;;;;;;5012736;28;20656;-80
2021/07/30 08:13:00;;;;;;;5.10;2.40;;;21.60;99.90;;;;;;5012820;28;20224;-79
2021/07/30 08:15:26;;;;;;;4.17;2.47;;;21.60;99.90;;;;;;5012911;28;20496;-80
2021/07/30 08:17:51;;;;;;;5.10;3.17;;;21.70;99.90;;;;;;5013324;28;20177;-80
2021/07/30 08:20:17;;;;;;;2.83;2.33;;;21.80;99.90;;;;;;5012826;28;20580;-80
2021/07/30 08:22:44;;;;;;;10.63;2.70;;;21.80;99.90;;;;;;5013097;28;20192;-77
2021/07/30 08:25:11;;;;;;;2.60;2.40;;;21.80;99.90;;;;;;5012758;28;20179;-76
2021/07/30 08:27:37;;;;;;;10.83;2.63;;;21.90;99.90;;;;;;5012226;28;20449;-76
2021/07/30 08:30:03;;;;;;;5.00;2.60;;;22.00;99.90;;;;;;5017511;28;20956;-75
2021/07/30 08:32:29;;;;;;;5.43;2.63;;;22.10;99.90;;;;;;5033521;28;20207;-76
2021/07/30 08:34:54;;;;;;;7.07;2.87;;;22.10;99.90;;;;;;5034694;28;20464;-76
2021/07/30 08:37:20;;;;;;;2.90;2.60;;;22.40;99.90;;;;;;5035279;28;20234;-76
2021/07/30 08:39:46;;;;;;;4.60;2.80;;;22.40;99.90;;;;;;5018895;28;20272;-80
2021/07/30 08:42:14;;;;;;;5.73;2.40;;;22.60;99.90;;;;;;5016272;28;20610;-80
2021/07/30 08:44:39;;;;;;;4.03;2.70;;;22.60;99.90;;;;;;5016226;28;20171;-80
2021/07/30 08:47:06;;;;;;;5.77;2.57;;;22.60;99.90;;;;;;5022636;28;20502;-80
2021/07/30 08:49:34;;;;;;;7.23;2.60;;;22.70;99.90;;;;;;5035784;28;20243;-80
2021/07/30 08:52:10;;;;;;;3.87;2.50;;;22.70;99.90;;;;;;5034528;28;20800;-80
2021/07/30 08:54:37;;;;;;;5.50;2.60;;;22.80;99.90;;;;;;5018152;28;20416;-80
2021/07/30 08:57:07;;;;;;;7.27;3.03;;;22.90;99.90;;;;;;5016163;28;20415;-80
2021/07/30 08:59:33;;;;;;;5.23;2.73;;;22.90;99.90;;;;;;5015955;28;20901;-80
2021/07/30 09:01:58;;;;;;;13.20;2.90;;;23.10;99.90;;;;;;5015948;28;20458;-80
2021/07/30 09:04:28;;;;;;;5.70;2.80;;;23.10;99.90;;;;;;5015825;28;20174;-80
2021/07/30 09:06:54;;;;;;;4.23;2.70;;;23.10;99.90;;;;;;5017521;28;20195;-80
2021/07/30 09:09:20;;;;;;;4.70;2.83;;;23.20;99.90;;;;;;5035889;28;20409;-80
2021/07/30 09:11:46;;;;;;;5.83;2.60;;;23.30;99.90;;;;;;5035454;28;20452;-80
2021/07/30 09:14:12;;;;;;;3.27;2.70;;;23.40;99.90;;;;;;5034233;28;20184;-80
2021/07/30 09:16:47;;;;;;;6.10;3.30;;;23.60;99.90;;;;;;5035257;28;20397;-80
2021/07/30 09:19:12;;;;;;;4.67;2.20;;;23.70;99.90;;;;;;5015752;28;20417;-80
2021/07/30 09:21:38;;;;;;;4.60;2.53;;;23.80;99.90;;;;;;5015629;28;20906;-80
2021/07/30 09:24:15;;;;;;;4.30;2.67;;;23.80;99.90;;;;;;5015793;28;20168;-80
2021/07/30 09:26:40;;;;;;;2.93;2.30;;;23.90;99.90;;;;;;5015606;28;20187;-80
2021/07/30 09:29:08;;;;;;;3.20;2.53;;;23.90;99.20;;;;;;5033079;28;20831;-80
2021/07/30 09:31:36;;;;;;;4.97;3.30;;;24.00;99.90;;;;;;5029586;28;20300;-80
2021/07/30 09:34:39;;;;;;;4.30;2.70;;;24.10;99.90;;;;;;5033445;28;20447;-80
2021/07/30 09:37:10;;;;;;;4.60;2.40;;;24.20;99.50;;;;;;5033278;28;20456;-80
2021/07/30 09:39:50;;;;;;;6.10;2.83;;;24.20;98.50;;;;;;5035339;28;20501;-76
2021/07/30 09:42:20;;;;;;;5.00;2.30;;;24.30;97.70;;;;;;5018099;28;20545;-75
2021/07/30 09:45:00;;;;;;;2.80;2.30;;;24.50;96.30;;;;;;5014243;28;20409;-75
2021/07/30 09:47:31;;;;;;;4.00;2.17;;;24.50;96.20;;;;;;5018346;28;20457;-76
2021/07/30 09:49:59;;;;;;;6.23;2.80;;;24.60;94.00;;;;;;5034519;28;20422;-76
2021/07/30 09:52:32;;;;;;;4.93;2.67;;;24.60;96.10;;;;;;5033557;28;20481;-75
2021/07/30 09:55:05;;;;;;;4.17;2.90;;;24.60;97.20;;;;;;5032722;28;20933;-77
2021/07/30 09:57:33;;;;;;;4.73;3.00;;;24.70;91.60;;;;;;5019245;28;20473;-77
2021/07/30 10:00:05;;;;;;;6.27;2.73;;;24.60;92.90;;;;;;5034345;28;20413;-77
2021/07/30 10:02:33;;;;;;;2.70;2.50;;;24.60;94.90;;;;;;5034619;28;20476;-77
2021/07/30 10:05:00;;;;;;;12.13;3.13;;;24.80;94.10;;;;;;5033218;28;20425;-78
2021/07/30 10:07:27;;;;;;;3.37;2.77;;;24.80;94.10;;;;;;5022842;28;20520;-76
2021/07/30 10:10:00;;;;;;;4.83;2.50;;;25.00;94.00;;;;;;5031124;28;20585;-79
2021/07/30 10:12:32;;;;;;;3.00;2.70;;;25.10;91.00;;;;;;5017948;28;20462;-80
2021/07/30 10:15:00;;;;;;;11.03;2.90;;;25.50;90.40;;;;;;5024277;28;20433;-79
2021/07/30 10:17:43;;;;;;;3.93;3.07;;;25.80;87.60;;;;;;5028414;28;20429;-79
2021/07/30 10:20:11;;;;;;;3.77;2.73;;;25.80;89.60;;;;;;5029117;28;20422;-79
2021/07/30 10:22:50;;;;;;;7.50;2.53;;;26.00;87.40;;;;;;5022232;28;20433;-79
2021/07/30 10:25:52;;;;;;;5.13;2.47;;;26.00;87.20;;;;;;5016753;28;20401;-76
2021/07/30 10:28:28;;;;;;;3.73;2.50;;;26.20;79.90;;;;;;5029764;28;20852;-76
2021/07/30 10:30:59;;;;;;;2.60;2.40;;;26.20;80.00;;;;;;5033656;28;20527;-76
2021/07/30 10:33:31;;;;;;;4.37;2.70;;;26.40;81.90;;;;;;5029647;28;20884;-76
2021/07/30 10:35:58;;;;;;;4.80;3.20;;;26.60;79.30;;;;;;5013897;28;20401;-76
2021/07/30 10:38:25;;;;;;;2.67;2.47;;;26.70;79.30;;;;;;5027966;28;20558;-76
2021/07/30 10:41:08;;;;;;;6.50;3.23;;;26.80;74.00;;;;;;5033828;28;20447;-76
2021/07/30 10:43:49;;;;;;;3.70;2.77;;;27.00;76.40;;;;;;5029760;28;20459;-76
2021/07/30 10:46:16;;;;;;;5.10;2.90;;;27.20;74.30;;;;;;5013965;28;20408;-76
2021/07/30 10:48:42;;;;;;;5.53;2.87;;;27.30;72.50;;;;;;5013739;28;20408;-76
2021/07/30 10:51:23;;;;;;;2.77;2.53;;;27.30;72.40;;;;;;5014828;28;20930;-76
2021/07/30 10:54:02;;;;;;;6.43;3.03;;;27.10;70.00;;;;;;5025518;28;20413;-79
2021/07/30 10:56:30;;;;;;;8.33;2.90;;;26.70;72.90;;;;;;5014974;28;20451;-76
2021/07/30 10:58:59;;;;;;;4.13;2.90;;;26.60;74.00;;;;;;5032130;28;20458;-76
2021/07/30 11:01:27;;;;;;;3.17;2.60;;;26.50;72.90;;;;;;5030072;28;20442;-76
2021/07/30 11:03:53;;;;;;;2.90;2.60;;;26.60;74.20;;;;;;5013775;28;20466;-76
2021/07/30 11:06:21;;;;;;;4.80;3.17;;;26.70;73.10;;;;;;5017190;28;20437;-75
2021/07/30 11:09:03;;;;;;;7.23;2.50;;;26.50;70.90;;;;;;5028635;28;20674;-75
2021/07/30 11:12:03;;;;;;;4.20;3.53;;;26.50;72.80;;;;;;5031211;28;20505;-76
2021/07/30 11:14:36;;;;;;;5.63;3.50;;;26.60;73.50;;;;;;5030546;28;20456;-76
2021/07/30 11:17:04;;;;;;;4.23;3.03;;;26.70;69.00;;;;;;5031282;28;20421;-76
2021/07/30 11:19:47;;;;;;;9.63;2.87;;;26.70;69.30;;;;;;5015426;28;20436;-76
2021/07/30 11:22:20;;;;;;;5.93;2.83;;;26.70;65.10;;;;;;5013641;28;20429;-75
2021/07/30 11:25:00;;;;;;;5.13;2.80;;;26.70;69.00;;;;;;5017053;28;20445;-76
2021/07/30 11:27:26;;;;;;;6.23;2.83;;;26.60;66.60;;;;;;5018670;28;20432;-76
2021/07/30 11:29:56;;;;;;;10.13;2.90;;;26.70;68.80;;;;;;5026344;28;20417;-75
2021/07/30 11:32:23;;;;;;;3.83;2.67;;;26.70;72.00;;;;;;5020371;28;20206;-76
2021/07/30 11:35:09;;;;;;;4.87;3.00;;;26.90;68.00;;;;;;5030143;28;20420;-76
2021/07/30 11:37:35;;;;;;;6.53;2.80;;;26.90;70.10;;;;;;5027130;28;20452;-76
2021/07/30 11:43:22;;;;;;;3.13;2.60;;;27.30;66.40;;;;;;5032276;28;20555;-79
2021/07/30 11:49:30;;;;;;;4.83;2.73;;;27.30;71.10;;;;;;5029874;28;20189;-81
2021/07/30 11:52:19;;;;;;;4.57;2.70;;;27.30;72.20;;;;;;5031264;28;20457;-79
2021/07/30 11:55:19;;;;;;;3.83;2.77;;;27.10;59.90;;;;;;5033746;28;20396;-78
2021/07/30 11:58:30;;;;;;;3.47;2.63;;;27.00;63.80;;;;;;5026426;28;20421;-79
2021/07/30 12:01:12;;;;;;;4.60;2.40;;;27.10;65.20;;;;;;5013653;28;20446;-79
2021/07/30 12:04:15;;;;;;;3.67;3.07;;;27.40;63.60;;;;;;5021288;28;20936;-79
2021/07/30 12:06:41;;;;;;;3.50;3.20;;;27.30;65.60;;;;;;5001521;28;20457;-80
2021/07/30 12:09:10;;;;;;;3.57;2.90;;;27.40;66.30;;;;;;4995942;28;20421;-80
2021/07/30 12:11:37;;;;;;;2.90;2.70;;;27.40;69.60;;;;;;4996192;28;20186;-81
2021/07/30 12:14:04;;;;;;;2.80;2.60;;;27.30;65.50;;;;;;5009670;28;20497;-80
2021/07/30 12:16:31;;;;;;;13.47;3.17;;;27.20;61.90;;;;;;5014596;28;20406;-81
2021/07/30 12:18:56;;;;;;;7.43;2.80;;;27.30;60.40;;;;;;5014661;28;20418;-80
2021/07/30 12:21:22;;;;;;;6.93;2.83;;;27.30;58.10;;;;;;5004748;28;20443;-80
2021/07/30 12:23:48;;;;;;;4.10;2.00;;;27.30;62.40;;;;;;4997236;28;20190;-81
2021/07/30 12:26:33;;;;;;;5.03;2.80;;;27.30;60.40;;;;;;4995653;28;20434;-76
2021/07/30 12:29:06;;;;;;;5.73;2.87;;;27.60;58.80;;;;;;4995312;28;20193;-76
2021/07/30 12:31:32;;;;;;;2.53;2.40;;;27.80;59.00;;;;;;5002893;28;20448;-76
2021/07/30 12:34:30;;;;;;;3.73;2.53;;;27.80;62.10;;;;;;5013036;28;20583;-76
2021/07/30 12:37:07;;;;;;;2.60;2.40;;;28.10;57.60;;;;;;4976029;28;20197;-76
2021/07/30 12:40:12;;;;;;;3.07;2.77;;;28.10;57.00;;;;;;4962559;28;20487;-76
2021/07/30 12:42:42;;;;;;;4.93;2.57;;;28.30;53.90;;;;;;4966004;28;20440;-78
2021/07/30 12:48:29;;;;;;;3.23;2.40;;;28.20;51.10;;;;;;4956923;28;20407;-78
2021/07/30 12:50:55;;;;;;;5.27;2.90;;;28.20;53.90;;;;;;4956377;29;20452;-78
2021/07/30 12:54:07;;;;;;;5.83;2.50;;;28.20;53.70;;;;;;4968280;28;20190;-78
2021/07/30 13:00:31;;;;;;;5.57;2.57;;;28.30;49.20;;;;;;4964743;28;20568;-80
2021/07/30 13:03:12;;;;;;;2.80;2.60;;;28.30;53.10;;;;;;4971368;28;20805;-81
2021/07/30 13:09:00;;;;;;;2.90;2.60;;;28.30;56.50;;;;;;4959743;28;20463;-79
2021/07/30 13:12:06;;;;;;;3.13;2.60;;;28.30;54.90;;;;;;4972347;28;20471;-80
2021/07/30 13:14:36;;;;;;;6.00;2.47;;;28.60;56.50;;;;;;5022971;28;20640;-80
2021/07/30 13:20:49;;;;;;;2.37;2.23;;;29.00;53.70;;;;;;5022511;28;20453;-80
2021/07/30 13:26:36;;;;;;;3.13;2.93;;;29.10;52.30;;;;;;5034729;28;20420;-79
2021/07/30 13:29:42;;;;;;;2.30;2.10;;;29.10;44.50;;;;;;5035575;28;20480;-80
2021/07/30 13:32:07;;;;;;;5.73;2.60;;;29.10;48.90;;;;;;5016328;28;20219;-81
2021/07/30 13:34:42;;;;;;;2.80;2.50;;;29.20;42.80;;;;;;5030681;28;20926;-80
2021/07/30 13:37:08;;;;;;;2.50;2.30;;;29.10;42.70;;;;;;5034754;28;20563;-82
2021/07/30 13:40:00;;;;;;;5.00;2.77;;;29.00;42.60;;;;;;5035171;28;20549;-83
2021/07/30 13:42:42;;;;;;;2.63;2.33;;;29.00;44.60;;;;;;5028765;28;20188;-77
2021/07/30 13:45:40;;;;;;;3.90;2.63;;;29.00;42.70;;;;;;5023512;28;20950;-81
2021/07/30 13:48:49;;;;;;;4.50;2.63;;;29.10;42.70;;;;;;5015670;28;20915;-78
2021/07/30 13:51:42;;;;;;;2.10;2.00;;;29.40;42.90;;;;;;5028013;28;20471;-78
2021/07/30 13:54:42;;;;;;;5.80;2.57;;;29.40;42.90;;;;;;5035375;28;20405;-80
2021/07/30 13:57:48;;;;;;;5.70;2.57;;;29.40;42.90;;;;;;5015530;28;20498;-78
2021/07/30 14:00:14;;;;;;;4.50;2.23;;;29.40;44.90;;;;;;5032132;28;20464;-78
2021/07/30 14:03:24;;;;;;;5.70;2.40;;;29.60;43.00;;;;;;5035675;28;20971;-81
2021/07/30 14:05:55;;;;;;;4.60;2.20;;;29.60;43.00;;;;;;5035220;28;20430;-74
2021/07/30 14:08:21;;;;;;;2.97;2.43;;;29.50;44.90;;;;;;5035352;28;20407;-74
2021/07/30 14:10:48;;;;;;;3.67;2.60;;;29.30;42.90;;;;;;5016760;28;20415;-74
2021/07/30 14:16:37;;;;;;;5.53;2.23;;;29.40;44.90;;;;;;5018053;28;20416;-78
2021/07/30 14:22:24;;;;;;;3.20;2.47;;;29.50;44.90;;;;;;5015179;28;20498;-85
2021/07/30 14:25:07;;;;;;;4.70;2.80;;;29.60;45.00;;;;;;5015711;28;20434;-85
2021/07/30 14:27:43;;;;;;;3.80;2.60;;;29.60;43.00;;;;;;5025616;28;20739;-76
2021/07/30 14:30:13;;;;;;;5.53;2.57;;;29.50;35.50;;;;;;5025209;28;20914;-76
2021/07/30 14:32:54;;;;;;;3.33;2.67;;;29.50;36.60;;;;;;5034496;28;20478;-76
2021/07/30 14:38:42;;;;;;;3.63;2.70;;;29.60;40.30;;;;;;5014745;28;20473;-74
2021/07/30 14:41:24;;;;;;;2.93;2.63;;;29.60;37.80;;;;;;5023037;28;20463;-76